Phoenix Sky Harbor International Airport
KPHX : now visible

Airfield :











YOU CAN JOIN US ON...

 
LOGIN :

Register | Disclaimer

   EN    FR    IT 

 









Legend :    VFR   Marginal VFR   IFR   Intensive IFR   Very Intensive IFR
Visi :
Ceiling :
>= 8 km
>= 3000ft
5 to 8 km
1000 to 3000 ft
1500m to 5 km
500 to 1000 ft
800 to 1500m
200 to 500 ft
< 800m
< 200 ft
Symbols :   Thunderstorms  Fog  Heavy snow  Heavy precipitations  Wind > 20 kt







- Airport Elevation : 1135 ft
- IATA code : PHX


KPHX - Phoenix Sky Harbor International

CURRENT METAR :
  • 210251Z 26006KT 10SM CLR 32/M01 A2976 RMK AO2 SLP057 T03221011 53006

EXPIRED METARs :
  • 210151Z 30010KT 10SM CLR 33/00 A2973 RMK AO2 SLP050 T03280000
  • 210051Z 31012KT 280V350 10SM FEW120 34/01 A2973 RMK AO2 SLP048 T03390006

TAF KPHX
Valid from the 21 at 03:00 until the 22 at 06:00 UTC


210255Z 2103/2206 27006KT P6SM SKC
FM210600 VRB03KT P6SM SKC
FM211000 11006KT P6SM SKC
FM212100 26006KT P6SM SKC
No reported NOTAMs for that airfield.



MET'MAP, your aeronautical weather chart ! - Copyright ORBIFLY December 2007 - Disclaimer

ORBIFLY MET'MAP TEAM :

Programming & Development : Alexandra Zaïnal
Concept & Development : Baudouin d'Aumeries
Co-Development & Prog : Marc-Olivier Méhu
Technical & hardware support : Manuel Goepfert

Contact : metmap@orbifly.com




SOURCES & CREDITS :

   NOAA       Earth
Advisory